Time;durP1;ratioP1;P1;durP2;ratioP2;P2;SDS_P1;SDS_P2;PMS_P1;PMS_P2;Temp;Humidity;BMP_temperature;BMP_pressure;BME280_temperature;BME280_humidity;BME280_pressure;Samples;Min_cycle;Max_cycle;Signal;HPM_P1;HPM_P2
2021/08/17 00:04:38;;;;;;;5.40;1.10;;;13.00;99.90;;;;;;10409481;28;20112;-63
2021/08/17 00:09:40;;;;;;;9.68;1.35;;;12.90;99.90;;;;;;10407498;28;20125;-62
2021/08/17 00:14:41;;;;;;;7.45;1.52;;;12.90;99.90;;;;;;10404972;28;20110;-62
2021/08/17 00:19:45;;;;;;;4.85;1.48;;;12.80;99.90;;;;;;10412735;28;20425;-62
2021/08/17 00:24:47;;;;;;;4.55;1.40;;;12.80;99.90;;;;;;10411192;28;20041;-62
2021/08/17 00:29:49;;;;;;;9.13;1.80;;;12.80;99.90;;;;;;10408325;28;20065;-62
2021/08/17 00:34:51;;;;;;;9.85;1.30;;;12.80;99.90;;;;;;10408092;28;20060;-62
2021/08/17 00:39:53;;;;;;;6.80;1.35;;;12.70;99.90;;;;;;10408960;28;20084;-63
2021/08/17 00:44:54;;;;;;;9.93;1.60;;;12.70;99.90;;;;;;10406651;28;20106;-62
2021/08/17 00:49:56;;;;;;;7.38;1.30;;;12.40;99.90;;;;;;10408423;28;20065;-62
2021/08/17 00:54:58;;;;;;;8.05;3.05;;;12.30;99.90;;;;;;10407126;28;20049;-62
2021/08/17 00:59:59;;;;;;;6.00;1.55;;;12.30;99.90;;;;;;10403861;28;20476;-62
2021/08/17 01:05:05;;;;;;;6.78;1.60;;;12.20;99.90;;;;;;10405554;28;20048;-62
2021/08/17 01:10:09;;;;;;;5.88;1.13;;;12.10;99.90;;;;;;10397763;28;20581;-63
2021/08/17 01:15:14;;;;;;;5.10;1.48;;;12.00;99.90;;;;;;10405630;28;20049;-63
2021/08/17 01:20:18;;;;;;;7.05;1.08;;;12.00;99.90;;;;;;10406570;28;20124;-63
2021/08/17 01:25:20;;;;;;;5.75;1.05;;;12.00;99.90;;;;;;10406181;28;20095;-63
2021/08/17 01:30:22;;;;;;;5.82;1.35;;;12.00;99.90;;;;;;10411519;28;20057;-63
2021/08/17 01:35:25;;;;;;;9.10;1.30;;;11.90;99.90;;;;;;10404285;28;20084;-63
2021/08/17 01:40:28;;;;;;;5.03;1.17;;;11.90;99.90;;;;;;10405855;28;20967;-63
2021/08/17 01:45:30;;;;;;;5.22;1.67;;;12.10;99.90;;;;;;10407183;28;20037;-63
2021/08/17 01:50:32;;;;;;;8.27;1.80;;;12.20;99.90;;;;;;10405827;28;20071;-63
2021/08/17 01:55:33;;;;;;;7.10;1.33;;;12.20;99.90;;;;;;10400142;28;20049;-62
2021/08/17 02:00:35;;;;;;;9.70;1.77;;;12.30;99.90;;;;;;10406079;28;20092;-62
2021/08/17 02:05:38;;;;;;;5.40;1.40;;;12.30;99.90;;;;;;10413920;28;20127;-62
2021/08/17 02:10:40;;;;;;;7.55;1.40;;;12.30;99.90;;;;;;10410559;28;20033;-62
2021/08/17 02:15:43;;;;;;;5.95;1.67;;;12.30;99.90;;;;;;10401387;28;20041;-62
2021/08/17 02:20:45;;;;;;;3.90;1.15;;;12.30;99.90;;;;;;10413637;28;20049;-62
2021/08/17 02:25:46;;;;;;;8.25;2.25;;;12.30;99.90;;;;;;10410209;28;20102;-62
2021/08/17 02:30:49;;;;;;;4.03;1.70;;;12.30;99.90;;;;;;10408540;28;20081;-62
2021/08/17 02:35:51;;;;;;;6.15;1.55;;;12.30;99.90;;;;;;10408225;28;20073;-63
2021/08/17 02:40:53;;;;;;;8.68;1.25;;;12.20;99.90;;;;;;10409128;28;20053;-62
2021/08/17 02:45:58;;;;;;;6.03;1.42;;;12.20;99.90;;;;;;10412075;28;20056;-62
2021/08/17 02:51:00;;;;;;;6.15;1.35;;;12.30;99.90;;;;;;10408439;28;20048;-62
2021/08/17 02:56:01;;;;;;;8.30;1.35;;;12.30;99.90;;;;;;10405011;28;20536;-63
2021/08/17 03:01:03;;;;;;;5.00;1.50;;;12.30;99.90;;;;;;10408801;28;20049;-62
2021/08/17 03:06:05;;;;;;;6.63;1.20;;;12.40;99.90;;;;;;10409278;28;20077;-62
2021/08/17 03:11:06;;;;;;;5.85;1.65;;;12.30;99.90;;;;;;10409731;28;20107;-62
2021/08/17 03:16:08;;;;;;;7.63;1.10;;;12.10;99.90;;;;;;10410040;28;20158;-62
2021/08/17 03:21:10;;;;;;;8.73;1.80;;;12.10;99.90;;;;;;10407611;28;20115;-62
2021/08/17 03:26:12;;;;;;;5.10;1.80;;;12.00;99.90;;;;;;10407089;28;20061;-62
2021/08/17 03:31:13;;;;;;;3.45;1.27;;;12.00;99.90;;;;;;10414362;28;20064;-62
2021/08/17 03:36:15;;;;;;;3.63;1.58;;;11.90;99.90;;;;;;10404533;28;20110;-62
2021/08/17 03:41:17;;;;;;;14.40;2.83;;;11.90;99.90;;;;;;10407060;28;20053;-61
2021/08/17 03:46:18;;;;;;;7.57;2.38;;;11.80;99.90;;;;;;10409429;28;20053;-63
2021/08/17 03:51:20;;;;;;;6.97;2.45;;;11.80;99.90;;;;;;10410850;28;20132;-63
2021/08/17 03:56:22;;;;;;;7.53;2.53;;;11.80;99.90;;;;;;10405803;28;20072;-63
2021/08/17 04:01:23;;;;;;;10.50;2.00;;;11.80;99.90;;;;;;10410160;28;20053;-63
2021/08/17 04:06:25;;;;;;;7.93;2.17;;;11.70;99.90;;;;;;10406005;28;20490;-63
2021/08/17 04:11:27;;;;;;;7.05;2.05;;;11.70;99.90;;;;;;10407096;28;20162;-63
2021/08/17 04:16:29;;;;;;;4.97;1.80;;;11.70;99.90;;;;;;10406854;28;20053;-65
2021/08/17 04:21:30;;;;;;;9.68;2.38;;;11.80;99.90;;;;;;10406968;28;20049;-65
2021/08/17 04:26:32;;;;;;;10.02;3.20;;;11.80;99.90;;;;;;10408827;28;20049;-65
2021/08/17 04:31:34;;;;;;;7.57;2.25;;;11.90;99.90;;;;;;10411651;28;20049;-65
2021/08/17 04:36:36;;;;;;;7.85;2.35;;;11.90;99.90;;;;;;10404798;28;20041;-65
2021/08/17 04:41:37;;;;;;;5.35;2.13;;;11.90;99.90;;;;;;10406267;28;20064;-65
2021/08/17 04:46:39;;;;;;;10.25;2.88;;;11.90;99.90;;;;;;10406589;28;20076;-65
2021/08/17 04:51:41;;;;;;;6.75;2.50;;;12.00;99.90;;;;;;10402684;28;20060;-65
2021/08/17 04:56:43;;;;;;;6.07;2.38;;;12.10;99.90;;;;;;10404538;28;20057;-65
2021/08/17 05:01:44;;;;;;;8.02;3.30;;;12.10;99.90;;;;;;10406908;28;20049;-65
2021/08/17 05:06:46;;;;;;;5.22;1.90;;;12.10;99.90;;;;;;10405439;28;20523;-65
2021/08/17 05:11:49;;;;;;;5.60;2.45;;;12.10;99.90;;;;;;10406341;28;20080;-65
2021/08/17 05:16:52;;;;;;;6.15;2.40;;;12.20;99.90;;;;;;10407498;28;20041;-65
2021/08/17 05:21:53;;;;;;;6.65;2.70;;;12.30;99.90;;;;;;10402644;28;20079;-64
2021/08/17 05:26:55;;;;;;;8.15;2.60;;;12.50;99.90;;;;;;10420595;28;20089;-65
2021/08/17 05:31:57;;;;;;;6.57;2.95;;;12.70;99.90;;;;;;10404739;28;20099;-65
2021/08/17 05:36:59;;;;;;;10.13;3.58;;;12.60;99.90;;;;;;10408158;28;20101;-65
2021/08/17 05:42:00;;;;;;;5.88;3.05;;;12.70;99.90;;;;;;10401705;28;20150;-64
2021/08/17 05:47:02;;;;;;;8.30;3.03;;;12.90;99.90;;;;;;10403667;28;20140;-65
2021/08/17 05:52:05;;;;;;;9.50;3.10;;;13.00;99.90;;;;;;10400454;28;20045;-65
2021/08/17 05:57:08;;;;;;;9.80;3.78;;;13.20;99.90;;;;;;10409269;28;20176;-65
2021/08/17 06:02:10;;;;;;;11.95;3.38;;;13.10;99.90;;;;;;10405495;28;20072;-65
2021/08/17 06:07:12;;;;;;;7.68;2.97;;;13.00;99.90;;;;;;10398467;28;20076;-65
2021/08/17 06:12:13;;;;;;;6.82;3.25;;;13.00;99.90;;;;;;10400300;28;20049;-65
2021/08/17 06:17:15;;;;;;;11.88;4.47;;;13.10;99.90;;;;;;10403184;28;20073;-65
2021/08/17 06:22:16;;;;;;;10.10;3.20;;;13.20;99.90;;;;;;10405827;28;20049;-65
2021/08/17 06:27:19;;;;;;;11.40;3.72;;;13.30;99.90;;;;;;10405238;28;20146;-65
2021/08/17 06:32:24;;;;;;;8.52;3.83;;;13.40;99.90;;;;;;10403896;28;20049;-63
2021/08/17 06:37:26;;;;;;;12.90;4.35;;;13.50;99.90;;;;;;10402787;28;20060;-62
2021/08/17 06:42:27;;;;;;;7.90;3.13;;;13.70;99.90;;;;;;10401714;28;20045;-68
2021/08/17 06:47:29;;;;;;;9.35;4.00;;;13.80;99.90;;;;;;10409509;28;20099;-66
2021/08/17 06:52:30;;;;;;;12.15;4.10;;;13.80;99.90;;;;;;10410683;28;20053;-65
2021/08/17 06:57:33;;;;;;;10.95;4.18;;;14.00;99.90;;;;;;10414896;28;20045;-65
2021/08/17 07:02:35;;;;;;;12.10;4.10;;;13.90;99.90;;;;;;10412021;28;20467;-65
2021/08/17 07:07:55;;;;;;;11.02;4.20;;;13.90;99.90;;;;;;10405783;28;20061;-64
2021/08/17 07:12:57;;;;;;;10.82;4.82;;;13.80;99.90;;;;;;10411080;28;20073;-65
2021/08/17 07:17:59;;;;;;;10.57;4.22;;;13.80;99.90;;;;;;10409855;28;20051;-65
2021/08/17 07:23:00;;;;;;;15.02;5.20;;;13.90;99.90;;;;;;10409754;28;20076;-65
2021/08/17 07:28:03;;;;;;;11.40;4.63;;;13.90;99.90;;;;;;10407631;28;20097;-65
2021/08/17 07:33:05;;;;;;;8.77;4.47;;;14.00;99.90;;;;;;10409205;28;20084;-65
2021/08/17 07:38:07;;;;;;;12.20;4.50;;;14.20;99.90;;;;;;10416420;28;20130;-65
2021/08/17 07:43:09;;;;;;;9.18;3.97;;;14.20;99.90;;;;;;10411242;28;21015;-65
2021/08/17 07:48:11;;;;;;;13.30;5.15;;;14.30;99.90;;;;;;10406454;28;20099;-65
2021/08/17 07:53:12;;;;;;;11.48;4.50;;;14.40;99.90;;;;;;10406914;28;20124;-65
2021/08/17 07:58:14;;;;;;;12.05;4.40;;;14.40;99.90;;;;;;10409708;28;20132;-64
2021/08/17 08:03:16;;;;;;;11.73;4.53;;;14.90;99.90;;;;;;10411649;28;20046;-64
2021/08/17 08:08:18;;;;;;;14.05;4.78;;;15.20;99.90;;;;;;10410320;28;20073;-65
2021/08/17 08:13:20;;;;;;;15.38;4.25;;;15.50;99.90;;;;;;10413820;28;20056;-64
2021/08/17 08:18:21;;;;;;;9.27;4.95;;;15.60;99.90;;;;;;10409805;28;20507;-65
2021/08/17 08:23:23;;;;;;;12.93;4.88;;;15.60;99.90;;;;;;10407008;28;20049;-65
2021/08/17 08:28:25;;;;;;;9.57;3.95;;;15.70;99.90;;;;;;10405633;28;20238;-65
2021/08/17 08:33:27;;;;;;;21.10;5.03;;;15.70;99.90;;;;;;10405421;28;20060;-65
2021/08/17 08:38:29;;;;;;;9.32;4.25;;;15.90;99.90;;;;;;10403040;28;20076;-65
2021/08/17 08:43:31;;;;;;;9.90;4.55;;;16.10;99.90;;;;;;10410715;28;20049;-65
2021/08/17 08:48:33;;;;;;;9.85;4.80;;;16.10;99.90;;;;;;10409277;28;20057;-65
2021/08/17 08:53:36;;;;;;;11.18;4.95;;;16.40;99.90;;;;;;10404081;28;20057;-65
2021/08/17 08:58:40;;;;;;;12.50;4.55;;;16.40;99.90;;;;;;10407717;28;20048;-65
2021/08/17 09:03:44;;;;;;;11.50;4.15;;;16.40;99.90;;;;;;10403115;28;20072;-65
2021/08/17 09:08:48;;;;;;;15.20;6.05;;;16.90;99.90;;;;;;10405683;28;20458;-65
2021/08/17 09:13:50;;;;;;;11.55;5.32;;;16.70;99.90;;;;;;10404908;28;20056;-66
2021/08/17 09:18:52;;;;;;;13.15;5.80;;;16.90;99.90;;;;;;10400497;28;20053;-66
2021/08/17 09:23:54;;;;;;;11.82;5.03;;;17.00;99.90;;;;;;10404680;28;22184;-66
2021/08/17 09:28:58;;;;;;;10.85;5.10;;;16.90;99.90;;;;;;10402393;28;20053;-66
2021/08/17 09:34:00;;;;;;;11.68;5.72;;;17.40;99.90;;;;;;10404839;28;20114;-66
2021/08/17 09:39:03;;;;;;;11.20;4.93;;;17.20;99.90;;;;;;10401172;28;20115;-66
2021/08/17 09:44:07;;;;;;;13.65;6.45;;;17.20;99.90;;;;;;10406935;28;20036;-66
2021/08/17 09:49:26;;;;;;;16.65;4.65;;;16.90;99.90;;;;;;10401340;28;20053;-66
2021/08/17 09:54:28;;;;;;;12.93;5.78;;;17.00;99.90;;;;;;10406473;28;20045;-66
2021/08/17 09:59:32;;;;;;;11.95;5.90;;;17.30;99.90;;;;;;10409524;28;20423;-66
2021/08/17 10:04:35;;;;;;;9.20;5.10;;;17.20;99.90;;;;;;10402849;28;20053;-66
2021/08/17 10:09:38;;;;;;;11.40;5.15;;;17.50;99.90;;;;;;10400912;28;20041;-66
2021/08/17 10:14:40;;;;;;;12.90;5.50;;;17.90;99.90;;;;;;10400154;28;20045;-69
2021/08/17 10:19:44;;;;;;;14.90;6.28;;;17.50;99.90;;;;;;10409690;28;20098;-66
2021/08/17 10:24:48;;;;;;;13.50;5.13;;;17.60;99.90;;;;;;10411155;28;20376;-66
2021/08/17 10:29:53;;;;;;;8.85;4.60;;;17.90;99.90;;;;;;10410216;28;20055;-66
2021/08/17 10:34:54;;;;;;;8.30;4.85;;;18.10;99.90;;;;;;10408367;28;20103;-67
2021/08/17 10:39:56;;;;;;;6.65;3.42;;;18.20;99.10;;;;;;10411602;28;20053;-63
2021/08/17 10:45:24;;;;;;;7.78;3.58;;;18.20;97.40;;;;;;10413442;28;20083;-66
2021/08/17 10:50:31;;;;;;;8.70;3.75;;;18.60;95.30;;;;;;10406718;28;20652;-65
2021/08/17 10:55:37;;;;;;;6.10;2.97;;;18.90;94.10;;;;;;10416289;28;20146;-65
2021/08/17 11:00:53;;;;;;;8.18;3.50;;;19.00;92.90;;;;;;10407902;28;20069;-66
2021/08/17 11:05:55;;;;;;;7.10;2.93;;;19.10;91.50;;;;;;10405533;28;20049;-65
2021/08/17 11:11:02;;;;;;;10.48;3.40;;;19.20;91.70;;;;;;10409057;28;20065;-63
2021/08/17 11:16:08;;;;;;;6.30;2.58;;;18.60;92.30;;;;;;10409203;28;20111;-62
2021/08/17 11:21:10;;;;;;;9.40;3.65;;;18.40;92.40;;;;;;10409781;28;20049;-62
2021/08/17 11:26:12;;;;;;;6.63;3.28;;;18.40;93.00;;;;;;10401559;28;20088;-62
2021/08/17 11:31:13;;;;;;;9.43;3.95;;;18.50;93.10;;;;;;10403127;28;20127;-62
2021/08/17 11:36:24;;;;;;;6.63;3.30;;;18.40;92.50;;;;;;10413242;28;20065;-62
2021/08/17 11:41:31;;;;;;;7.10;2.85;;;18.60;92.30;;;;;;10417497;28;20438;-63
2021/08/17 11:46:32;;;;;;;5.28;2.63;;;18.50;90.50;;;;;;10402946;28;20134;-63
2021/08/17 11:51:34;;;;;;;5.15;2.58;;;18.40;88.80;;;;;;10407338;28;20048;-62
2021/08/17 11:56:36;;;;;;;8.07;3.70;;;18.40;89.40;;;;;;10407373;28;20044;-64
2021/08/17 12:01:37;;;;;;;6.75;3.15;;;18.60;90.20;;;;;;10406026;28;20072;-63
2021/08/17 12:06:39;;;;;;;8.88;3.50;;;18.80;89.20;;;;;;10409296;28;20136;-64
2021/08/17 12:11:59;;;;;;;5.20;2.55;;;18.80;87.30;;;;;;10406296;28;20045;-63
2021/08/17 12:17:01;;;;;;;8.38;3.83;;;18.60;87.00;;;;;;10407150;28;20132;-63
2021/08/17 12:22:18;;;;;;;6.82;3.00;;;18.70;87.00;;;;;;10406272;28;20046;-64
2021/08/17 12:27:26;;;;;;;10.23;3.15;;;18.90;86.90;;;;;;10409613;28;20064;-63
2021/08/17 12:32:28;;;;;;;6.50;3.58;;;18.80;88.80;;;;;;10412075;28;20052;-63
2021/08/17 12:37:32;;;;;;;6.70;3.08;;;18.50;88.40;;;;;;10408899;28;20049;-64
2021/08/17 12:42:44;;;;;;;6.57;3.08;;;18.50;89.30;;;;;;10406131;28;20527;-63
2021/08/17 12:48:01;;;;;;;5.22;3.08;;;18.60;87.90;;;;;;10406576;28;20123;-63
2021/08/17 12:53:04;;;;;;;6.53;2.92;;;18.60;87.20;;;;;;10402569;28;20075;-64
2021/08/17 12:58:06;;;;;;;6.30;2.65;;;18.50;86.30;;;;;;10403906;28;20060;-63
2021/08/17 13:03:07;;;;;;;7.88;2.30;;;18.70;84.90;;;;;;10406111;28;20049;-63
2021/08/17 13:08:10;;;;;;;7.65;2.55;;;18.70;82.90;;;;;;10402318;28;20133;-64
2021/08/17 13:13:14;;;;;;;5.78;2.13;;;18.70;82.40;;;;;;10400984;28;20052;-63
2021/08/17 13:18:15;;;;;;;5.63;1.75;;;18.50;80.10;;;;;;10404776;28;20107;-63
2021/08/17 13:23:17;;;;;;;4.00;1.85;;;18.60;77.70;;;;;;10401007;28;20523;-63
2021/08/17 13:28:21;;;;;;;3.88;1.90;;;18.60;78.40;;;;;;10403429;28;20048;-64
2021/08/17 13:33:22;;;;;;;5.60;1.92;;;18.40;77.90;;;;;;10408532;28;20104;-63
2021/08/17 13:38:24;;;;;;;4.00;2.15;;;18.60;78.10;;;;;;10401579;28;20478;-63
2021/08/17 13:43:26;;;;;;;5.45;2.47;;;18.60;78.20;;;;;;10355801;28;20051;-62
2021/08/17 13:48:28;;;;;;;7.50;2.38;;;18.70;77.70;;;;;;10407750;28;20052;-62
2021/08/17 13:53:30;;;;;;;6.07;2.65;;;18.70;79.20;;;;;;10403035;28;20053;-63
2021/08/17 13:58:32;;;;;;;8.63;3.35;;;18.40;79.80;;;;;;10404373;28;20049;-63
2021/08/17 14:03:33;;;;;;;6.72;2.15;;;18.50;81.90;;;;;;10414485;28;20542;-64
2021/08/17 14:08:36;;;;;;;5.93;2.50;;;18.30;81.40;;;;;;10393646;28;20107;-63
2021/08/17 14:13:39;;;;;;;6.35;2.30;;;18.50;81.70;;;;;;10410365;28;20051;-63
2021/08/17 14:18:42;;;;;;;5.63;2.30;;;18.40;82.80;;;;;;10406739;28;20056;-64
2021/08/17 14:23:46;;;;;;;8.50;2.35;;;18.30;82.80;;;;;;10403743;28;20488;-63
2021/08/17 14:28:49;;;;;;;8.23;2.63;;;18.20;81.50;;;;;;10399528;28;20447;-63
2021/08/17 14:33:52;;;;;;;6.85;3.33;;;18.40;82.60;;;;;;10401990;28;20076;-62
2021/08/17 14:38:55;;;;;;;6.43;2.88;;;18.10;82.70;;;;;;10402169;28;20061;-63
2021/08/17 14:43:57;;;;;;;6.05;2.90;;;18.10;82.50;;;;;;10401686;28;20046;-63
2021/08/17 14:48:59;;;;;;;5.45;2.95;;;17.90;83.20;;;;;;10408320;28;20041;-65
2021/08/17 14:54:01;;;;;;;6.40;2.88;;;17.80;83.80;;;;;;10398699;28;20056;-65
2021/08/17 14:59:03;;;;;;;6.68;2.88;;;17.80;84.50;;;;;;10404804;28;20046;-64
2021/08/17 15:04:05;;;;;;;4.72;2.42;;;17.80;84.60;;;;;;10389572;28;20033;-65
2021/08/17 15:09:08;;;;;;;8.65;2.92;;;17.80;85.30;;;;;;10410754;28;20048;-63
2021/08/17 15:14:10;;;;;;;8.27;2.90;;;17.80;85.40;;;;;;10405200;28;20076;-63
2021/08/17 15:19:11;;;;;;;6.55;3.47;;;17.80;86.00;;;;;;10409884;28;20068;-63
2021/08/17 15:24:13;;;;;;;7.32;3.58;;;17.60;85.60;;;;;;10408719;28;20041;-63
2021/08/17 15:29:14;;;;;;;8.05;3.30;;;17.60;86.80;;;;;;10406353;28;20099;-64
2021/08/17 15:34:19;;;;;;;7.47;2.72;;;17.70;86.50;;;;;;10410215;28;20048;-63
2021/08/17 15:39:21;;;;;;;9.95;3.40;;;17.70;87.10;;;;;;10413267;28;20099;-63
2021/08/17 15:44:22;;;;;;;6.85;3.20;;;17.60;86.80;;;;;;10406917;28;20134;-63
2021/08/17 15:49:25;;;;;;;8.75;4.20;;;17.50;87.50;;;;;;10411526;28;20057;-62
2021/08/17 15:54:27;;;;;;;7.95;3.38;;;17.50;88.00;;;;;;10410818;28;20040;-62
2021/08/17 15:59:29;;;;;;;10.38;3.33;;;17.50;89.70;;;;;;10409604;28;20386;-62
2021/08/17 16:04:30;;;;;;;8.55;3.65;;;17.40;90.30;;;;;;10412199;28;20049;-63
2021/08/17 16:09:33;;;;;;;8.30;3.75;;;17.40;91.10;;;;;;10408100;28;20118;-63
2021/08/17 16:14:34;;;;;;;7.30;3.90;;;17.20;92.30;;;;;;10404243;28;20042;-62
2021/08/17 16:19:36;;;;;;;7.40;4.00;;;17.00;93.20;;;;;;10405556;28;20045;-62
2021/08/17 16:24:38;;;;;;;7.55;3.80;;;17.00;94.40;;;;;;10404868;28;20431;-61
2021/08/17 16:29:39;;;;;;;9.88;4.32;;;16.90;94.40;;;;;;10406039;28;20052;-61
2021/08/17 16:34:41;;;;;;;11.77;5.05;;;16.80;94.70;;;;;;10408392;28;20088;-61
2021/08/17 16:39:43;;;;;;;10.48;4.20;;;16.70;95.20;;;;;;10406630;28;20054;-62
2021/08/17 16:44:45;;;;;;;11.55;4.55;;;16.80;95.50;;;;;;10406922;28;20049;-62
2021/08/17 16:49:47;;;;;;;8.63;3.65;;;16.70;96.20;;;;;;10411990;28;20133;-62
2021/08/17 16:54:49;;;;;;;9.70;4.50;;;16.80;96.20;;;;;;10403043;28;20091;-62
2021/08/17 16:59:50;;;;;;;13.15;4.82;;;16.70;96.30;;;;;;10400985;28;20077;-61
2021/08/17 17:04:52;;;;;;;12.50;4.63;;;16.60;96.60;;;;;;10406337;28;20132;-61
2021/08/17 17:09:54;;;;;;;11.13;4.68;;;16.50;97.40;;;;;;10402418;28;20056;-61
2021/08/17 17:14:55;;;;;;;12.20;5.13;;;16.40;98.10;;;;;;10401357;28;20069;-62
2021/08/17 17:19:57;;;;;;;10.05;4.75;;;16.40;98.80;;;;;;10408133;28;20053;-62
2021/08/17 17:25:04;;;;;;;9.33;4.40;;;16.20;99.90;;;;;;10399524;28;20049;-62
2021/08/17 17:30:07;;;;;;;13.65;5.47;;;16.10;99.90;;;;;;10397969;28;20053;-61
2021/08/17 17:35:09;;;;;;;11.05;4.82;;;15.70;99.90;;;;;;10407922;28;20107;-61
2021/08/17 17:40:11;;;;;;;11.38;5.13;;;15.40;99.90;;;;;;10401231;28;20045;-61
2021/08/17 17:45:13;;;;;;;11.88;5.05;;;14.90;99.90;;;;;;10402709;28;20045;-61
2021/08/17 17:50:15;;;;;;;14.20;4.63;;;14.50;99.90;;;;;;10401774;28;20102;-62
2021/08/17 17:55:16;;;;;;;15.50;4.93;;;14.30;99.90;;;;;;10401456;28;20060;-63
2021/08/17 18:00:18;;;;;;;14.15;4.97;;;14.20;99.90;;;;;;10402307;28;20084;-63
2021/08/17 18:05:23;;;;;;;16.38;5.55;;;14.10;99.90;;;;;;10415556;28;20136;-64
2021/08/17 18:10:26;;;;;;;15.15;4.78;;;14.10;99.90;;;;;;10416563;28;20053;-65
2021/08/17 18:15:29;;;;;;;11.93;4.03;;;14.00;99.90;;;;;;10403153;28;20111;-65
2021/08/17 18:20:32;;;;;;;13.50;5.22;;;13.90;99.90;;;;;;10404745;28;20091;-65
2021/08/17 18:25:33;;;;;;;10.55;4.28;;;13.90;99.90;;;;;;10400857;28;20553;-65
2021/08/17 18:30:35;;;;;;;10.45;3.35;;;13.90;99.90;;;;;;10406662;28;20073;-65
2021/08/17 18:35:37;;;;;;;9.00;3.65;;;13.90;99.90;;;;;;10404956;28;20084;-64
2021/08/17 18:40:38;;;;;;;11.77;4.20;;;13.90;99.90;;;;;;10404567;28;20461;-65
2021/08/17 18:45:40;;;;;;;12.65;3.80;;;13.80;99.90;;;;;;10397656;28;20065;-66
2021/08/17 18:50:58;;;;;;;11.45;3.90;;;13.80;99.90;;;;;;10406752;28;20166;-63
2021/08/17 18:56:00;;;;;;;9.35;3.88;;;13.80;99.90;;;;;;10410434;28;20052;-61
2021/08/17 19:01:01;;;;;;;10.55;4.40;;;13.80;99.90;;;;;;10410794;28;20119;-61
2021/08/17 19:06:04;;;;;;;12.55;4.57;;;13.80;99.90;;;;;;10409392;28;20056;-61
2021/08/17 19:11:05;;;;;;;14.23;4.53;;;13.80;99.90;;;;;;10408528;28;20051;-62
2021/08/17 19:16:07;;;;;;;12.25;4.25;;;13.80;99.90;;;;;;10409336;28;20111;-62
2021/08/17 19:21:10;;;;;;;9.93;4.18;;;13.80;99.90;;;;;;10410753;28;20578;-63
2021/08/17 19:26:12;;;;;;;22.45;6.80;;;13.80;99.90;;;;;;10408593;28;20053;-62
2021/08/17 19:31:16;;;;;;;19.90;6.43;;;13.80;99.90;;;;;;10406508;28;20049;-62
2021/08/17 19:36:17;;;;;;;10.98;5.30;;;13.80;99.90;;;;;;10407808;28;20049;-63
2021/08/17 19:41:19;;;;;;;13.57;5.50;;;13.80;99.90;;;;;;10407383;28;20053;-62
2021/08/17 19:46:21;;;;;;;16.25;6.35;;;13.80;99.90;;;;;;10409054;28;20103;-62
2021/08/17 19:51:22;;;;;;;22.13;7.38;;;13.90;99.90;;;;;;10406943;28;20057;-62
2021/08/17 19:56:25;;;;;;;17.75;6.18;;;14.00;99.90;;;;;;10411965;28;20478;-60
2021/08/17 20:01:28;;;;;;;18.67;6.35;;;13.90;99.90;;;;;;10409294;28;20098;-61
2021/08/17 20:06:30;;;;;;;16.55;5.68;;;13.90;99.90;;;;;;10407064;28;20053;-61
2021/08/17 20:11:33;;;;;;;19.83;7.65;;;14.00;99.90;;;;;;10404939;28;20479;-61
2021/08/17 20:16:34;;;;;;;23.25;7.18;;;14.00;99.90;;;;;;10406746;28;20051;-63
2021/08/17 20:21:36;;;;;;;21.55;8.15;;;14.00;99.90;;;;;;10401085;28;20191;-63
2021/08/17 20:26:39;;;;;;;24.00;8.00;;;14.00;99.90;;;;;;10412385;28;20076;-63
2021/08/17 20:31:40;;;;;;;30.25;8.65;;;14.00;99.90;;;;;;10404416;28;20045;-63
2021/08/17 20:36:42;;;;;;;24.92;8.60;;;13.90;99.90;;;;;;10403463;28;20123;-63
2021/08/17 20:41:44;;;;;;;25.88;8.80;;;14.00;99.90;;;;;;10407667;28;20057;-63
2021/08/17 20:46:45;;;;;;;28.70;9.38;;;14.00;99.90;;;;;;10410813;28;20107;-63
2021/08/17 20:51:47;;;;;;;24.73;8.65;;;13.90;99.90;;;;;;10406837;28;20081;-63
2021/08/17 20:56:49;;;;;;;22.02;8.32;;;13.90;99.90;;;;;;10404124;28;20038;-63
2021/08/17 21:01:50;;;;;;;25.38;8.82;;;13.80;99.90;;;;;;10407767;28;20139;-62
2021/08/17 21:06:57;;;;;;;26.17;8.90;;;13.80;99.90;;;;;;10402265;28;20492;-64
2021/08/17 21:11:59;;;;;;;24.33;8.40;;;13.70;99.90;;;;;;10409878;28;20550;-61
2021/08/17 21:17:01;;;;;;;25.17;9.50;;;13.80;99.90;;;;;;10406789;28;20073;-61
2021/08/17 21:22:05;;;;;;;23.92;8.40;;;13.80;99.90;;;;;;10404827;28;20060;-61
2021/08/17 21:27:07;;;;;;;26.95;8.75;;;13.80;99.90;;;;;;10408047;28;20061;-61
2021/08/17 21:32:11;;;;;;;22.65;8.50;;;13.70;99.90;;;;;;10409922;28;20624;-62
2021/08/17 21:37:16;;;;;;;24.35;7.65;;;13.80;99.90;;;;;;10402253;28;20064;-62
2021/08/17 21:42:19;;;;;;;23.52;7.80;;;13.80;99.90;;;;;;10399373;28;20115;-62
2021/08/17 21:47:21;;;;;;;23.13;8.45;;;13.70;99.90;;;;;;10404690;28;20080;-63
2021/08/17 21:52:23;;;;;;;23.25;8.30;;;13.70;99.90;;;;;;10403432;28;20041;-62
2021/08/17 21:57:25;;;;;;;26.60;9.00;;;13.80;99.90;;;;;;10407691;28;20678;-62
2021/08/17 22:02:27;;;;;;;24.35;9.38;;;13.80;99.90;;;;;;10404563;28;20486;-62
2021/08/17 22:07:28;;;;;;;29.52;9.20;;;13.90;99.90;;;;;;10401909;28;20053;-62
2021/08/17 22:12:30;;;;;;;30.25;9.25;;;14.00;99.90;;;;;;10402536;28;20108;-62
2021/08/17 22:17:32;;;;;;;27.98;9.98;;;14.10;99.90;;;;;;10413266;28;20049;-62
2021/08/17 22:22:34;;;;;;;26.77;9.88;;;14.10;99.90;;;;;;10406998;28;20445;-62
2021/08/17 22:27:36;;;;;;;29.38;9.77;;;14.10;99.90;;;;;;10417256;28;20454;-62
2021/08/17 22:32:39;;;;;;;29.85;10.80;;;14.00;99.90;;;;;;10410756;28;20122;-62
2021/08/17 22:37:41;;;;;;;25.77;10.48;;;14.00;99.90;;;;;;10406639;28;20553;-62
2021/08/17 22:42:43;;;;;;;31.13;9.98;;;13.90;99.90;;;;;;10408678;28;20139;-62
2021/08/17 22:47:44;;;;;;;26.13;10.10;;;13.90;99.90;;;;;;10408198;28;20475;-62
2021/08/17 22:52:46;;;;;;;23.65;10.20;;;14.00;99.90;;;;;;10407222;28;20073;-62
2021/08/17 22:57:48;;;;;;;31.35;10.00;;;14.00;99.90;;;;;;10408458;28;20042;-62
2021/08/17 23:02:50;;;;;;;30.45;9.68;;;14.00;99.90;;;;;;10409746;28;20064;-62
2021/08/17 23:07:52;;;;;;;23.75;8.98;;;14.00;99.90;;;;;;10405618;28;20049;-62
2021/08/17 23:12:54;;;;;;;28.90;9.80;;;13.90;99.90;;;;;;10408765;28;20457;-62
2021/08/17 23:17:56;;;;;;;33.42;10.50;;;13.90;99.90;;;;;;10410082;28;20621;-62
2021/08/17 23:23:00;;;;;;;28.92;9.07;;;14.00;99.90;;;;;;10405619;28;20049;-62
2021/08/17 23:28:01;;;;;;;28.88;10.40;;;13.90;99.90;;;;;;10405742;28;20137;-62
2021/08/17 23:33:03;;;;;;;25.65;8.73;;;14.00;99.90;;;;;;10411547;28;20871;-62
2021/08/17 23:38:05;;;;;;;31.08;9.38;;;13.90;99.90;;;;;;10406350;28;20123;-62
2021/08/17 23:43:06;;;;;;;32.15;10.85;;;14.00;99.90;;;;;;10410534;28;20089;-62
2021/08/17 23:48:08;;;;;;;30.00;11.02;;;14.00;99.90;;;;;;10409974;28;20076;-62
2021/08/17 23:53:10;;;;;;;24.05;8.25;;;14.10;99.90;;;;;;10405453;28;20432;-62
2021/08/17 23:58:12;;;;;;;28.95;9.32;;;14.00;99.90;;;;;;10409245;28;20998;-62
